createdAt,value
2022-12-31T00:02:18.229Z,12.70
2022-12-31T00:04:44.970Z,12.70
2022-12-31T00:07:11.526Z,12.70
2022-12-31T00:09:38.106Z,12.60
2022-12-31T00:12:04.883Z,12.60
2022-12-31T00:14:31.555Z,12.50
2022-12-31T00:16:58.179Z,12.40
2022-12-31T00:19:24.739Z,12.30
2022-12-31T00:21:51.278Z,12.40
2022-12-31T00:24:17.836Z,12.40
2022-12-31T00:26:44.409Z,12.40
2022-12-31T00:29:10.968Z,12.40
2022-12-31T00:31:38.812Z,12.40
2022-12-31T00:34:06.084Z,12.50
2022-12-31T00:36:36.719Z,12.70
2022-12-31T00:39:05.458Z,12.70
2022-12-31T00:41:32.187Z,12.80
2022-12-31T00:43:59.451Z,12.80
2022-12-31T00:46:26.786Z,13.00
2022-12-31T00:48:53.688Z,12.80
2022-12-31T00:51:22.906Z,12.80
2022-12-31T00:53:49.971Z,12.90
2022-12-31T00:56:19.614Z,12.80
2022-12-31T00:58:46.800Z,12.80
2022-12-31T01:01:20.833Z,12.80
2022-12-31T01:03:50.241Z,12.90
2022-12-31T01:06:17.372Z,13.00
2022-12-31T01:08:44.392Z,12.90
2022-12-31T01:11:28.907Z,12.90
2022-12-31T01:14:02.918Z,12.90
2022-12-31T01:16:32.603Z,12.90
2022-12-31T01:19:01.655Z,12.90
2022-12-31T01:21:30.629Z,12.80
2022-12-31T01:23:58.649Z,12.90
2022-12-31T01:26:25.230Z,12.80
2022-12-31T01:28:51.779Z,12.80
2022-12-31T01:31:22.411Z,12.80
2022-12-31T01:33:50.029Z,12.80
2022-12-31T01:36:25.281Z,12.80
2022-12-31T01:38:53.416Z,12.80
2022-12-31T01:41:23.243Z,12.80
2022-12-31T01:43:54.432Z,12.60
2022-12-31T01:46:43.753Z,12.70
2022-12-31T01:49:38.575Z,12.80
2022-12-31T01:52:22.475Z,12.80
2022-12-31T01:54:56.813Z,12.80
2022-12-31T01:57:24.857Z,12.60
2022-12-31T01:59:53.131Z,12.60
2022-12-31T02:02:19.847Z,12.60
2022-12-31T02:04:47.701Z,12.50
2022-12-31T02:07:14.314Z,12.50
2022-12-31T02:09:42.189Z,12.30
2022-12-31T02:12:09.845Z,12.30
2022-12-31T02:14:51.796Z,12.40
2022-12-31T02:18:04.724Z,12.50
2022-12-31T02:20:49.079Z,12.50
2022-12-31T02:23:25.162Z,12.50
2022-12-31T02:26:17.558Z,12.50
2022-12-31T02:29:02.623Z,12.60
2022-12-31T02:32:05.905Z,12.80
2022-12-31T02:34:55.845Z,12.90
2022-12-31T02:37:24.888Z,12.90
2022-12-31T02:39:51.765Z,13.10
2022-12-31T02:42:18.396Z,13.20
2022-12-31T02:44:44.951Z,13.30
2022-12-31T02:47:40.090Z,13.30
2022-12-31T02:50:22.261Z,13.30
2022-12-31T02:53:12.588Z,13.20
2022-12-31T02:55:55.262Z,13.10
2022-12-31T02:58:56.272Z,13.10
2022-12-31T03:01:51.972Z,13.20
2022-12-31T03:04:31.990Z,13.10
2022-12-31T03:07:26.222Z,13.10
2022-12-31T03:09:53.730Z,13.20
2022-12-31T03:12:41.919Z,13.20
2022-12-31T03:15:20.339Z,13.20
2022-12-31T03:17:56.821Z,13.10
2022-12-31T03:20:51.060Z,13.20
2022-12-31T03:23:23.970Z,13.30
2022-12-31T03:25:50.924Z,13.30
2022-12-31T03:28:20.579Z,13.30
2022-12-31T03:30:53.125Z,13.30
2022-12-31T03:33:20.542Z,13.40
2022-12-31T03:35:48.797Z,13.40
2022-12-31T03:38:17.250Z,13.50
2022-12-31T03:40:46.617Z,13.60
2022-12-31T03:43:13.480Z,13.70
2022-12-31T03:45:40.173Z,13.90
2022-12-31T03:48:08.574Z,13.80
2022-12-31T03:50:35.667Z,13.80
2022-12-31T03:53:02.748Z,14.00
2022-12-31T03:55:29.340Z,14.10
2022-12-31T03:57:55.932Z,14.10
2022-12-31T04:00:22.930Z,14.10
2022-12-31T04:02:50.842Z,14.30
2022-12-31T04:05:19.454Z,14.20
2022-12-31T04:07:46.536Z,14.20
2022-12-31T04:10:15.144Z,14.20
2022-12-31T04:12:42.018Z,14.20
2022-12-31T04:15:10.226Z,14.20
2022-12-31T04:17:36.926Z,14.40
2022-12-31T04:20:04.340Z,14.40
2022-12-31T04:22:30.910Z,14.50
2022-12-31T04:24:57.680Z,14.40
2022-12-31T04:27:24.247Z,14.40
2022-12-31T04:29:50.786Z,14.30
2022-12-31T04:32:17.385Z,14.30
2022-12-31T04:34:43.998Z,14.30
2022-12-31T04:37:10.550Z,14.40
2022-12-31T04:39:37.134Z,14.40
2022-12-31T04:42:03.774Z,14.30
2022-12-31T04:44:31.592Z,14.30
2022-12-31T04:46:58.264Z,14.30
2022-12-31T04:49:24.819Z,14.20
2022-12-31T04:51:51.400Z,14.20
2022-12-31T04:54:17.952Z,14.20
2022-12-31T04:56:44.518Z,14.30
2022-12-31T04:59:11.698Z,14.30
2022-12-31T05:01:39.374Z,14.30
2022-12-31T05:04:06.447Z,14.30
2022-12-31T05:06:33.111Z,14.20
2022-12-31T05:08:59.814Z,14.20
2022-12-31T05:11:26.469Z,14.30
2022-12-31T05:13:53.036Z,14.30
2022-12-31T05:16:19.707Z,14.30
2022-12-31T05:18:46.339Z,14.20
2022-12-31T05:21:21.045Z,14.20
2022-12-31T05:23:48.175Z,14.30
2022-12-31T05:26:15.264Z,14.20
2022-12-31T05:28:41.793Z,14.30
2022-12-31T05:31:09.332Z,14.30
2022-12-31T05:33:36.021Z,14.20
2022-12-31T05:36:02.703Z,14.10
2022-12-31T05:38:29.279Z,14.10
2022-12-31T05:41:07.281Z,14.00
2022-12-31T05:43:34.446Z,14.10
2022-12-31T05:46:02.301Z,14.10
2022-12-31T05:48:29.084Z,14.10
2022-12-31T05:50:55.976Z,14.20
2022-12-31T05:53:22.801Z,14.30
2022-12-31T05:55:49.428Z,14.30
2022-12-31T05:58:16.353Z,14.30
2022-12-31T06:00:43.078Z,14.40
2022-12-31T06:03:10.226Z,14.30
2022-12-31T06:05:40.991Z,14.30
2022-12-31T06:08:07.574Z,14.20
2022-12-31T06:10:34.244Z,14.10
2022-12-31T06:13:00.856Z,14.20
2022-12-31T06:15:27.429Z,14.10
2022-12-31T06:17:54.057Z,14.20
2022-12-31T06:20:20.818Z,14.20
2022-12-31T06:22:47.523Z,14.20
2022-12-31T06:25:14.157Z,14.10
2022-12-31T06:27:40.765Z,14.00
2022-12-31T06:30:08.220Z,13.90
2022-12-31T06:32:35.044Z,13.90
2022-12-31T06:35:01.673Z,13.90
2022-12-31T06:37:28.237Z,13.80
2022-12-31T06:39:54.801Z,13.80
2022-12-31T06:42:21.518Z,13.70
2022-12-31T06:44:48.074Z,13.80
2022-12-31T06:47:14.619Z,13.80
2022-12-31T06:49:41.177Z,13.80
2022-12-31T06:52:08.259Z,13.90
2022-12-31T06:54:35.523Z,13.80
2022-12-31T06:57:02.420Z,13.70
2022-12-31T06:59:30.028Z,13.70
2022-12-31T07:02:16.067Z,13.60
2022-12-31T07:05:20.413Z,13.60
2022-12-31T07:08:13.865Z,13.50
2022-12-31T07:11:05.124Z,13.50
2022-12-31T07:13:58.858Z,13.40
2022-12-31T07:16:50.150Z,13.40
2022-12-31T07:19:31.416Z,13.50
2022-12-31T07:21:59.281Z,13.50
2022-12-31T07:24:26.336Z,13.60
2022-12-31T07:27:22.898Z,13.60
2022-12-31T07:30:20.628Z,13.60
2022-12-31T07:33:01.479Z,13.60
2022-12-31T07:35:55.825Z,13.60
2022-12-31T07:38:50.108Z,13.70
2022-12-31T07:41:41.053Z,13.70
2022-12-31T07:44:22.853Z,13.80
2022-12-31T07:46:55.908Z,13.90
2022-12-31T07:49:24.744Z,13.90
2022-12-31T07:51:51.822Z,13.90
2022-12-31T07:54:18.430Z,14.00
2022-12-31T07:56:45.693Z,14.10
2022-12-31T07:59:47.264Z,14.20
2022-12-31T08:02:51.649Z,14.30
2022-12-31T08:05:53.004Z,14.30
2022-12-31T08:08:46.731Z,14.30
2022-12-31T08:11:30.474Z,14.30
2022-12-31T08:14:01.732Z,14.40
2022-12-31T08:16:29.187Z,14.50
2022-12-31T08:18:56.187Z,14.60
2022-12-31T08:21:35.207Z,14.70
2022-12-31T08:24:16.024Z,14.80
2022-12-31T08:26:54.791Z,15.00
2022-12-31T08:29:28.301Z,14.90
2022-12-31T08:31:57.912Z,15.00
2022-12-31T08:34:48.608Z,15.00
2022-12-31T08:37:42.582Z,15.10
2022-12-31T08:40:44.636Z,15.10
2022-12-31T08:43:42.800Z,15.20
2022-12-31T18:01:44.049Z,13.30
2022-12-31T18:04:18.393Z,13.30
2022-12-31T18:06:46.143Z,13.30
2022-12-31T18:09:12.782Z,13.20
2022-12-31T18:11:40.804Z,13.20
2022-12-31T18:14:07.757Z,13.30
2022-12-31T18:16:35.681Z,13.40
2022-12-31T18:19:02.608Z,13.40
2022-12-31T18:21:32.533Z,13.40
2022-12-31T18:26:26.610Z,13.50
2022-12-31T18:28:53.540Z,13.80
2022-12-31T18:31:25.985Z,13.80
2022-12-31T18:33:54.112Z,13.70
2022-12-31T18:36:22.237Z,13.60
2022-12-31T18:38:49.020Z,13.50
2022-12-31T18:41:18.867Z,13.50
2022-12-31T18:43:45.990Z,13.50
2022-12-31T18:46:14.597Z,13.60
2022-12-31T18:48:41.887Z,13.60
2022-12-31T18:51:15.184Z,13.50
2022-12-31T18:53:41.988Z,13.40
2022-12-31T18:56:13.656Z,13.50
2022-12-31T18:58:40.936Z,13.50
2022-12-31T19:04:01.103Z,13.90
2022-12-31T19:06:29.023Z,13.90
2022-12-31T19:08:55.833Z,13.90
2022-12-31T19:11:23.278Z,13.90
2022-12-31T19:13:50.172Z,13.80
2022-12-31T19:16:17.937Z,13.70
2022-12-31T19:18:45.166Z,13.60
2022-12-31T19:21:16.678Z,13.50
2022-12-31T19:23:43.398Z,13.50
2022-12-31T19:26:15.269Z,13.40
2022-12-31T19:28:42.367Z,13.40
2022-12-31T19:36:09.583Z,13.50
2022-12-31T19:38:36.320Z,13.50
2022-12-31T19:41:03.024Z,13.50
2022-12-31T19:43:29.727Z,13.40
2022-12-31T19:45:56.663Z,13.40
2022-12-31T19:53:28.052Z,13.30
2022-12-31T19:55:54.740Z,13.20
2022-12-31T19:58:27.065Z,13.30
2022-12-31T20:01:02.944Z,13.20
2022-12-31T20:03:31.123Z,13.20
2022-12-31T20:06:05.944Z,13.10
2022-12-31T20:08:33.193Z,13.20
2022-12-31T20:35:51.583Z,13.20
2022-12-31T20:38:18.195Z,13.20
2022-12-31T20:40:46.976Z,13.30
2022-12-31T20:43:14.000Z,13.30
2022-12-31T20:45:41.423Z,13.20
2022-12-31T20:48:08.465Z,13.20
2022-12-31T20:50:35.116Z,13.10
2022-12-31T20:58:00.386Z,12.90
2022-12-31T21:00:26.996Z,12.70
2022-12-31T21:03:03.861Z,12.60
2022-12-31T21:05:35.155Z,12.60
2022-12-31T21:08:01.915Z,12.50
2022-12-31T21:10:28.540Z,12.50
2022-12-31T21:12:55.189Z,12.40
2022-12-31T21:15:21.832Z,12.30
2022-12-31T21:17:48.501Z,12.40
2022-12-31T21:20:15.206Z,12.40
2022-12-31T21:22:41.880Z,12.60
2022-12-31T21:25:10.318Z,12.50
2022-12-31T21:27:36.936Z,12.40
2022-12-31T21:30:20.441Z,12.40
2022-12-31T21:32:47.411Z,12.30
2022-12-31T21:35:42.252Z,12.30
2022-12-31T21:38:06.029Z,12.30
2022-12-31T21:40:33.265Z,12.20
2022-12-31T21:42:59.918Z,12.20
2022-12-31T21:45:26.725Z,12.20
2022-12-31T21:48:11.915Z,12.10
2022-12-31T21:50:38.546Z,12.00
2022-12-31T21:53:05.104Z,11.90
2022-12-31T21:55:50.655Z,11.90
2022-12-31T21:58:26.503Z,12.00
2022-12-31T22:01:13.306Z,11.90
2022-12-31T22:03:40.076Z,11.90
2022-12-31T22:06:21.152Z,11.90
2022-12-31T22:08:50.636Z,11.90
2022-12-31T22:11:18.971Z,12.00
2022-12-31T22:13:46.539Z,12.00
2022-12-31T22:16:14.257Z,12.10
2022-12-31T22:18:42.924Z,12.10
2022-12-31T22:21:18.800Z,12.00
2022-12-31T22:23:51.682Z,12.00
2022-12-31T22:26:21.303Z,12.00
2022-12-31T22:28:48.420Z,12.00
2022-12-31T22:31:20.382Z,12.20
2022-12-31T22:33:48.117Z,12.40
2022-12-31T22:36:17.637Z,12.30
2022-12-31T22:38:44.290Z,12.30
2022-12-31T22:41:29.228Z,12.30
2022-12-31T22:44:03.810Z,12.30
2022-12-31T22:46:31.876Z,12.30
2022-12-31T22:49:00.147Z,12.40
2022-12-31T22:51:55.024Z,12.30
2022-12-31T22:54:14.594Z,12.10
2022-12-31T22:56:41.347Z,12.00
2022-12-31T22:59:08.174Z,12.00
2022-12-31T23:01:34.950Z,12.10
2022-12-31T23:04:01.791Z,12.00
2022-12-31T23:06:29.005Z,12.00
2022-12-31T23:09:14.720Z,12.10
2022-12-31T23:11:43.187Z,12.00
2022-12-31T23:14:35.453Z,11.90
2022-12-31T23:17:30.080Z,12.00
2022-12-31T23:20:17.644Z,11.80
2022-12-31T23:23:03.062Z,11.80
2022-12-31T23:25:32.506Z,11.80
2022-12-31T23:27:59.245Z,11.70
2022-12-31T23:30:27.235Z,11.70
2022-12-31T23:32:53.909Z,11.60
2022-12-31T23:35:20.783Z,11.50
2022-12-31T23:37:47.341Z,11.50
2022-12-31T23:40:21.225Z,11.50
2022-12-31T23:42:49.502Z,11.50
2022-12-31T23:45:16.318Z,11.40
2022-12-31T23:47:43.038Z,11.40
2022-12-31T23:50:09.917Z,11.50
2022-12-31T23:52:38.392Z,11.50
2022-12-31T23:55:08.570Z,11.50
2022-12-31T23:57:35.369Z,11.50
